Aérodrome :
LOGIN :

S'inscrire | Disclaimer

   EN    FR    IT 

 










Légende :    VFR   VFR Marginal   IFR   IFR Intensif   IFR Très Intensif
Visi : 
Plafond : 
>= 8 km
>= 3000ft
5 à 8 km
1000 à 3000 ft
1500m à 5 km
500 à 1000 ft
800 à 1500m
200 à 500 ft
< 800m
< 200 ft
Symboles :   Orages  Brouillard  Fortes neiges  Fortes précipitations  Vent > 20 kt
SIGMETs :   Divers  Orages  Givrage  Turbulence  Onde Orograph.  Cendres Volcan.







- Altitude de l'aérodrome : 40 ft
- Code IATA : RMI


LIPR - Federico Fellini Int. Rimini

DERNIER METAR :
  • 181320Z 05006KT 010V100 9999 FEW030TCU 25/20 Q1018

METARs EXPIRÉS :
  • 181250Z 06006KT 020V080 8000 FEW030TCU 25/20 Q1019
  • 181220Z 05006KT 020V090 8000 FEW030TCU 25/20 Q1019
  • 181150Z 04006KT 360V080 8000 FEW040 24/20 Q1019
  • 181120Z 04006KT 360V070 8000 FEW040 24/20 Q1019
  • 181050Z 02007KT 340V060 7000 FEW040 24/21 Q1020

TAF TAF LIPR
Valide du 18 à 12h jusqu'au 18 à 21h UTC


181100Z 1812/1821 VRB05KT 9999 SCT060
TEMPO 1813/1818 TSRA
Pas de NOTAMs connus pour ce terrain.



MET'MAP, la Météo Aéronautique d'un coup d'oeil ! - Copyright ORBIFLY Décembre 2007 - Disclaimer

ORBIFLY MET'MAP TEAM :

Programmation & Développement : Alexandra Zaïnal
Conception & Développement : Baudouin d'Aumeries
Co-Programmation & Développement : Marc-Olivier Méhu
Soutien technique & logistique : Manuel Goepfert

Contact : metmap@orbifly.com




SOURCES & CREDITS :

   NOAA